createdAt,value
2017-10-26T00:00:05.072Z,12.8
2017-10-26T00:05:03.292Z,12.8
2017-10-26T00:10:02.626Z,12.7
2017-10-26T00:15:02.942Z,12.6
2017-10-26T00:20:02.771Z,12.6
2017-10-26T00:25:05.099Z,12.4
2017-10-26T00:30:02.481Z,12.4
2017-10-26T00:35:23.520Z,12.3
2017-10-26T00:40:02.696Z,12.3
2017-10-26T00:45:05.517Z,12.2
2017-10-26T00:50:07.938Z,12.1
2017-10-26T00:55:05.222Z,12.1
2017-10-26T01:00:02.472Z,12
2017-10-26T01:05:03.320Z,12
2017-10-26T01:10:22.931Z,11.9
2017-10-26T01:15:02.944Z,11.9
2017-10-26T01:20:20.531Z,11.8
2017-10-26T01:25:17.811Z,11.8
2017-10-26T01:30:15.194Z,11.7
2017-10-26T01:35:08.291Z,11.7
2017-10-26T01:40:02.631Z,11.7
2017-10-26T01:45:10.520Z,11.7
2017-10-26T01:50:10.360Z,11.7
2017-10-26T01:55:07.643Z,11.7
2017-10-26T02:00:04.938Z,11.7
2017-10-26T02:05:05.712Z,11.8
2017-10-26T02:10:02.493Z,11.7
2017-10-26T02:15:10.295Z,11.8
2017-10-26T02:20:05.098Z,11.9
2017-10-26T02:25:04.892Z,11.9
2017-10-26T02:30:20.867Z,12
2017-10-26T02:35:08.059Z,12
2017-10-26T02:40:18.504Z,11.9
2017-10-26T02:45:07.739Z,11.9
2017-10-26T02:50:25.264Z,11.9
2017-10-26T02:55:08.274Z,11.9
2017-10-26T03:00:08.188Z,11.8
2017-10-26T03:05:15.521Z,11.8
2017-10-26T03:10:05.791Z,11.8
2017-10-26T03:15:02.531Z,11.8
2017-10-26T03:20:04.896Z,11.8
2017-10-26T03:25:05.604Z,11.8
2017-10-26T03:30:02.928Z,11.8
2017-10-26T03:35:10.285Z,11.8
2017-10-26T03:40:03.040Z,11.8
2017-10-26T03:45:03.323Z,11.8
2017-10-26T03:50:03.140Z,11.8
2017-10-26T03:55:02.871Z,11.7
2017-10-26T04:00:30.494Z,11.7
2017-10-26T04:05:02.456Z,11.7
2017-10-26T04:10:05.349Z,11.8
2017-10-26T04:15:03.000Z,11.8
2017-10-26T04:20:07.875Z,11.8
2017-10-26T04:25:02.569Z,11.8
2017-10-26T04:30:17.614Z,11.8
2017-10-26T04:35:03.221Z,11.8
2017-10-26T04:40:17.800Z,11.8
2017-10-26T04:45:07.839Z,11.8
2017-10-26T04:50:05.198Z,11.8
2017-10-26T04:55:02.421Z,11.8
2017-10-26T05:00:08.265Z,11.7
2017-10-26T05:05:03.010Z,11.7
2017-10-26T05:10:10.082Z,11.3
2017-10-26T05:15:05.162Z,11.8
2017-10-26T05:20:22.665Z,11.7
2017-10-26T05:25:05.738Z,11.7
2017-10-26T05:30:03.081Z,11.7
2017-10-26T05:35:15.504Z,11.7
2017-10-26T05:40:03.289Z,11.7
2017-10-26T05:45:05.016Z,11.8
2017-10-26T05:50:08.477Z,11.7
2017-10-26T05:55:10.684Z,11.7
2017-10-26T06:00:33.346Z,11.7
2017-10-26T06:05:10.286Z,11.7
2017-10-26T06:10:03.135Z,11.7
2017-10-26T06:15:02.412Z,11.8
2017-10-26T06:20:13.403Z,11.8
2017-10-26T06:25:05.602Z,11.8
2017-10-26T06:30:30.786Z,11.9
2017-10-26T06:35:10.877Z,11.9
2017-10-26T06:40:05.612Z,11.9
2017-10-26T06:45:04.895Z,11.9
2017-10-26T06:50:05.900Z,11.9
2017-10-26T06:55:05.548Z,11.9
2017-10-26T07:00:05.401Z,12
2017-10-26T07:05:15.287Z,12
2017-10-26T07:10:03.029Z,12
2017-10-26T07:15:03.228Z,12.1
2017-10-26T07:20:08.144Z,12.2
2017-10-26T07:25:05.323Z,12.2
2017-10-26T07:30:03.240Z,12.2
2017-10-26T07:35:02.420Z,12.3
2017-10-26T07:40:07.953Z,12.4
2017-10-26T07:45:30.926Z,12.4
2017-10-26T07:50:18.167Z,12.5
2017-10-26T07:55:02.790Z,12.5
2017-10-26T08:00:10.393Z,12.6
2017-10-26T08:05:02.485Z,12.6
2017-10-26T08:10:05.417Z,12.6
2017-10-26T08:15:08.222Z,12.7
2017-10-26T08:25:05.436Z,12.7
2017-10-26T08:30:17.953Z,12.7
2017-10-26T08:35:07.677Z,12.8
2017-10-26T08:40:03.062Z,12.9
2017-10-26T08:45:05.814Z,13.1
2017-10-26T08:50:03.317Z,13.1
2017-10-26T08:55:08.043Z,13.2
2017-10-26T09:00:02.928Z,13.2
2017-10-26T09:05:02.778Z,13.2
2017-10-26T09:10:13.470Z,13.3
2017-10-26T09:15:20.236Z,13.5
2017-10-26T09:20:32.796Z,13.6
2017-10-26T09:25:13.361Z,13.7
2017-10-26T09:30:03.206Z,13.7
2017-10-26T09:35:03.038Z,13.8
2017-10-26T09:40:07.554Z,13.9
2017-10-26T09:45:18.049Z,14.1
2017-10-26T09:50:02.812Z,14.1
2017-10-26T09:55:05.210Z,14.2
2017-10-26T10:00:05.244Z,14.2
2017-10-26T10:05:02.559Z,14.2
2017-10-26T10:10:08.029Z,14.2
2017-10-26T10:15:15.052Z,14.3
2017-10-26T10:20:05.861Z,14.5
2017-10-26T10:25:05.741Z,14.6
2017-10-26T10:30:05.727Z,14.7
2017-10-26T10:35:05.569Z,14.8
2017-10-26T10:40:05.088Z,14.8
2017-10-26T10:45:10.524Z,14.8
2017-10-26T10:50:05.490Z,14.9
2017-10-26T10:55:05.440Z,14.9
2017-10-26T11:00:10.610Z,14.9
2017-10-26T11:05:15.517Z,14.9
2017-10-26T11:10:05.916Z,15.1
2017-10-26T11:15:12.911Z,15.2
2017-10-26T11:20:10.401Z,15.3
2017-10-26T11:25:07.865Z,15.4
2017-10-26T11:30:07.889Z,15.2
2017-10-26T11:35:05.359Z,15.1
2017-10-26T11:40:13.485Z,15.1
2017-10-26T11:45:17.964Z,15.1
2017-10-26T11:50:20.537Z,15.2
2017-10-26T11:55:02.799Z,15.2
2017-10-26T12:00:05.408Z,15.4
2017-10-26T12:05:02.808Z,15.4
2017-10-26T12:10:15.012Z,15.6
2017-10-26T12:15:07.887Z,15.6
2017-10-26T12:20:02.842Z,15.6
2017-10-26T12:25:15.543Z,15.7
2017-10-26T12:30:02.941Z,15.7
2017-10-26T12:35:35.818Z,15.6
2017-10-26T12:40:07.567Z,15.5
2017-10-26T12:45:02.939Z,15.5
2017-10-26T12:50:02.958Z,15.4
2017-10-26T12:55:13.111Z,15.4
2017-10-26T13:00:08.038Z,15.4
2017-10-26T13:05:30.822Z,15.3
2017-10-26T13:10:15.146Z,15.3
2017-10-26T13:15:02.942Z,15.3
2017-10-26T13:20:10.601Z,15.3
2017-10-26T13:25:25.684Z,15.3
2017-10-26T13:30:08.006Z,15.4
2017-10-26T13:35:07.929Z,15.4
2017-10-26T13:40:05.956Z,15.4
2017-10-26T13:45:02.872Z,15.4
2017-10-26T13:50:05.439Z,15.2
2017-10-26T13:55:25.681Z,15.2
2017-10-26T14:00:02.921Z,15.2
2017-10-26T14:05:02.868Z,15.2
2017-10-26T14:10:02.412Z,15.2
2017-10-26T14:15:02.908Z,15.1
2017-10-26T14:20:20.659Z,15
2017-10-26T14:25:05.443Z,15
2017-10-26T14:30:10.528Z,14.9
2017-10-26T14:35:07.958Z,14.9
2017-10-26T14:40:02.384Z,14.9
2017-10-26T14:45:20.542Z,14.9
2017-10-26T14:50:05.358Z,14.8
2017-10-26T14:55:05.327Z,14.8
2017-10-26T15:00:05.362Z,14.8
2017-10-26T15:05:12.844Z,14.7
2017-10-26T15:10:05.734Z,14.7
2017-10-26T15:15:12.765Z,14.6
2017-10-26T15:20:07.680Z,14.5
2017-10-26T15:25:02.524Z,14.5
2017-10-26T15:30:05.054Z,14.5
2017-10-26T15:35:10.012Z,14.5
2017-10-26T15:40:05.370Z,14.4
2017-10-26T15:45:03.230Z,14.4
2017-10-26T15:50:33.489Z,14.3
2017-10-26T15:55:23.261Z,14.2
2017-10-26T16:00:05.518Z,14.2
2017-10-26T16:05:02.812Z,14.2
2017-10-26T16:10:03.260Z,14.2
2017-10-26T16:15:05.128Z,14.1
2017-10-26T16:20:10.131Z,14.1
2017-10-26T16:25:37.850Z,14.1
2017-10-26T16:30:02.443Z,14.1
2017-10-26T16:35:03.270Z,14.1
2017-10-26T16:40:05.248Z,14.1
2017-10-26T16:45:08.118Z,14
2017-10-26T16:50:05.530Z,14
2017-10-26T16:55:02.883Z,14
2017-10-26T17:00:08.067Z,13.9
2017-10-26T17:05:17.880Z,13.9
2017-10-26T17:10:05.626Z,13.8
2017-10-26T17:15:22.707Z,13.8
2017-10-26T17:20:02.440Z,13.8
2017-10-26T17:25:13.450Z,13.8
2017-10-26T17:30:03.259Z,13.8
2017-10-26T17:35:05.694Z,13.8
2017-10-26T17:40:30.452Z,13.8
2017-10-26T17:45:05.517Z,13.8
2017-10-26T17:50:18.092Z,13.8
2017-10-26T17:55:12.941Z,13.8
2017-10-26T18:00:02.758Z,13.8
2017-10-26T18:05:05.121Z,13.8
2017-10-26T18:10:03.040Z,13.8
2017-10-26T18:15:08.376Z,13.7
2017-10-26T18:20:15.934Z,13.7
2017-10-26T18:25:03.032Z,13.8
2017-10-26T18:30:18.152Z,13.7
2017-10-26T18:35:02.894Z,13.7
2017-10-26T18:40:05.844Z,13.6
2017-10-26T18:45:02.582Z,13.6
2017-10-26T18:50:05.088Z,13.6
2017-10-26T18:55:02.402Z,13.6
2017-10-26T19:00:03.266Z,13.6
2017-10-26T19:05:08.189Z,13.5
2017-10-26T19:10:07.557Z,13.5
2017-10-26T19:15:15.502Z,13.4
2017-10-26T19:20:05.363Z,13.4
2017-10-26T19:25:30.311Z,13.3
2017-10-26T19:30:02.379Z,13.3
2017-10-26T19:35:15.824Z,13.2
2017-10-26T19:40:07.606Z,13.1
2017-10-26T19:45:05.388Z,13.1
2017-10-26T19:50:15.421Z,13
2017-10-26T19:55:02.561Z,13.1
2017-10-26T20:00:02.420Z,13
2017-10-26T20:05:10.785Z,12.9
2017-10-26T20:10:10.152Z,12.9
2017-10-26T20:15:02.882Z,12.9
2017-10-26T20:20:07.848Z,12.9
2017-10-26T20:25:05.111Z,12.9
2017-10-26T20:30:07.554Z,12.9
2017-10-26T20:35:05.820Z,12.8
2017-10-26T20:40:02.762Z,12.8
2017-10-26T20:45:13.079Z,12.7
2017-10-26T20:50:02.874Z,12.7
2017-10-26T20:55:05.179Z,12.7
2017-10-26T21:00:12.640Z,12.6
2017-10-26T21:05:03.307Z,12.7
2017-10-26T21:10:02.679Z,12.7
2017-10-26T21:15:10.572Z,12.6
2017-10-26T21:20:07.954Z,12.6
2017-10-26T21:25:02.613Z,12.6
2017-10-26T21:30:02.498Z,12.6
2017-10-26T21:35:03.267Z,12.6
2017-10-26T21:40:02.618Z,12.6
2017-10-26T21:45:02.925Z,12.6
2017-10-26T21:50:07.882Z,12.6
2017-10-26T21:55:25.392Z,12.6
2017-10-26T22:00:05.019Z,12.6
2017-10-26T22:05:05.818Z,12.6
2017-10-26T22:10:17.822Z,12.6
2017-10-26T22:15:02.875Z,12.6
2017-10-26T22:20:25.479Z,12.6
2017-10-26T22:25:05.033Z,12.6
2017-10-26T22:30:04.906Z,12.6
2017-10-26T22:35:03.158Z,12.6
2017-10-26T22:40:02.688Z,12.5
2017-10-26T22:45:05.355Z,12.5
2017-10-26T22:50:05.303Z,12.5
2017-10-26T22:55:02.492Z,12.5
2017-10-26T23:00:02.396Z,12.5
2017-10-26T23:05:03.219Z,12.5
2017-10-26T23:10:02.578Z,12.6
2017-10-26T23:15:05.390Z,12.6
2017-10-26T23:20:05.277Z,12.5
2017-10-26T23:25:02.583Z,12.5
2017-10-26T23:30:02.377Z,12.6
2017-10-26T23:35:05.699Z,12.5
2017-10-26T23:40:05.070Z,12.5
2017-10-26T23:45:07.911Z,12.5
2017-10-26T23:50:07.786Z,12.4
2017-10-26T23:55:05.022Z,12.4
